sensor_id;sensor_type;location;lat;lon;timestamp;temperature;humidity
19483;DHT22;9882;51.166;6.992;2024-01-06T00:00:58;7.10;99.90
19483;DHT22;9882;51.166;6.992;2024-01-06T00:03:26;7.20;99.90
19483;DHT22;9882;51.166;6.992;2024-01-06T00:05:55;7.20;99.90
19483;DHT22;9882;51.166;6.992;2024-01-06T00:08:23;7.20;99.90
19483;DHT22;9882;51.166;6.992;2024-01-06T00:10:52;7.30;99.90
19483;DHT22;9882;51.166;6.992;2024-01-06T00:13:22;7.10;99.90
19483;DHT22;9882;51.166;6.992;2024-01-06T00:15:51;7.10;99.90
19483;DHT22;9882;51.166;6.992;2024-01-06T00:18:20;7.30;99.90
19483;DHT22;9882;51.166;6.992;2024-01-06T00:20:50;7.00;99.90
19483;DHT22;9882;51.166;6.992;2024-01-06T00:23:18;7.20;99.90
19483;DHT22;9882;51.166;6.992;2024-01-06T00:25:47;7.30;99.90
19483;DHT22;9882;51.166;6.992;2024-01-06T00:28:15;7.30;99.90
19483;DHT22;9882;51.166;6.992;2024-01-06T00:30:44;7.30;99.90
19483;DHT22;9882;51.166;6.992;2024-01-06T00:33:12;7.20;99.90
19483;DHT22;9882;51.166;6.992;2024-01-06T00:35:42;7.20;99.90
19483;DHT22;9882;51.166;6.992;2024-01-06T00:38:11;7.10;99.90
19483;DHT22;9882;51.166;6.992;2024-01-06T00:40:40;7.20;99.90
19483;DHT22;9882;51.166;6.992;2024-01-06T00:43:08;7.50;99.90
19483;DHT22;9882;51.166;6.992;2024-01-06T00:45:37;7.40;99.90
19483;DHT22;9882;51.166;6.992;2024-01-06T00:48:06;7.20;99.90
19483;DHT22;9882;51.166;6.992;2024-01-06T00:50:35;7.20;99.90
19483;DHT22;9882;51.166;6.992;2024-01-06T00:53:05;7.30;99.90
19483;DHT22;9882;51.166;6.992;2024-01-06T00:55:34;7.50;99.90
19483;DHT22;9882;51.166;6.992;2024-01-06T00:58:02;7.20;99.90
19483;DHT22;9882;51.166;6.992;2024-01-06T01:00:31;7.30;99.90
19483;DHT22;9882;51.166;6.992;2024-01-06T01:03:00;7.20;99.90
19483;DHT22;9882;51.166;6.992;2024-01-06T01:05:28;7.20;99.90
19483;DHT22;9882;51.166;6.992;2024-01-06T01:07:57;7.20;99.90
19483;DHT22;9882;51.166;6.992;2024-01-06T01:10:27;7.20;99.90
19483;DHT22;9882;51.166;6.992;2024-01-06T01:12:56;7.40;99.90
19483;DHT22;9882;51.166;6.992;2024-01-06T01:15:25;7.30;99.90
19483;DHT22;9882;51.166;6.992;2024-01-06T01:17:53;7.40;99.90
19483;DHT22;9882;51.166;6.992;2024-01-06T01:20:22;7.30;99.90
19483;DHT22;9882;51.166;6.992;2024-01-06T01:22:51;7.40;99.90
19483;DHT22;9882;51.166;6.992;2024-01-06T01:25:19;7.40;99.90
19483;DHT22;9882;51.166;6.992;2024-01-06T01:27:49;7.40;99.90
19483;DHT22;9882;51.166;6.992;2024-01-06T01:30:18;7.50;99.90
19483;DHT22;9882;51.166;6.992;2024-01-06T01:32:46;7.50;99.90
19483;DHT22;9882;51.166;6.992;2024-01-06T01:35:15;7.50;99.90
19483;DHT22;9882;51.166;6.992;2024-01-06T01:37:44;7.30;99.90
19483;DHT22;9882;51.166;6.992;2024-01-06T01:40:12;7.40;99.90
19483;DHT22;9882;51.166;6.992;2024-01-06T01:42:42;7.40;99.90
19483;DHT22;9882;51.166;6.992;2024-01-06T01:45:12;7.40;99.90
19483;DHT22;9882;51.166;6.992;2024-01-06T01:47:41;7.40;99.90
19483;DHT22;9882;51.166;6.992;2024-01-06T01:50:10;7.30;99.90
19483;DHT22;9882;51.166;6.992;2024-01-06T01:52:41;7.30;99.90
19483;DHT22;9882;51.166;6.992;2024-01-06T01:55:10;7.50;99.90
19483;DHT22;9882;51.166;6.992;2024-01-06T01:57:39;7.60;99.90
19483;DHT22;9882;51.166;6.992;2024-01-06T02:00:09;7.70;99.90
19483;DHT22;9882;51.166;6.992;2024-01-06T02:02:39;7.50;99.90
19483;DHT22;9882;51.166;6.992;2024-01-06T02:05:08;7.40;99.90
19483;DHT22;9882;51.166;6.992;2024-01-06T02:07:36;7.40;99.90
19483;DHT22;9882;51.166;6.992;2024-01-06T02:10:06;7.50;99.90
19483;DHT22;9882;51.166;6.992;2024-01-06T02:12:35;7.50;99.90
19483;DHT22;9882;51.166;6.992;2024-01-06T02:15:06;7.50;99.90
19483;DHT22;9882;51.166;6.992;2024-01-06T02:17:35;7.50;99.90
19483;DHT22;9882;51.166;6.992;2024-01-06T02:20:07;7.50;99.90
19483;DHT22;9882;51.166;6.992;2024-01-06T02:22:37;7.40;99.90
19483;DHT22;9882;51.166;6.992;2024-01-06T02:25:07;7.50;99.90
19483;DHT22;9882;51.166;6.992;2024-01-06T02:27:39;7.60;99.90
19483;DHT22;9882;51.166;6.992;2024-01-06T02:30:09;7.50;99.90
19483;DHT22;9882;51.166;6.992;2024-01-06T02:32:38;7.50;99.90
19483;DHT22;9882;51.166;6.992;2024-01-06T02:35:07;7.50;99.90
19483;DHT22;9882;51.166;6.992;2024-01-06T02:37:37;7.50;99.90
19483;DHT22;9882;51.166;6.992;2024-01-06T02:40:07;7.50;99.90
19483;DHT22;9882;51.166;6.992;2024-01-06T02:42:36;7.50;99.90
19483;DHT22;9882;51.166;6.992;2024-01-06T02:45:06;7.40;99.90
19483;DHT22;9882;51.166;6.992;2024-01-06T02:47:35;7.50;99.90
19483;DHT22;9882;51.166;6.992;2024-01-06T02:50:04;7.50;99.90
19483;DHT22;9882;51.166;6.992;2024-01-06T02:52:33;7.50;99.90
19483;DHT22;9882;51.166;6.992;2024-01-06T02:55:04;7.50;99.90
19483;DHT22;9882;51.166;6.992;2024-01-06T02:57:32;7.50;99.90
19483;DHT22;9882;51.166;6.992;2024-01-06T03:00:01;7.60;99.90
19483;DHT22;9882;51.166;6.992;2024-01-06T03:02:30;7.60;99.90
19483;DHT22;9882;51.166;6.992;2024-01-06T03:05:00;7.50;99.90
19483;DHT22;9882;51.166;6.992;2024-01-06T03:07:28;7.60;99.90
19483;DHT22;9882;51.166;6.992;2024-01-06T03:09:57;7.80;99.90
19483;DHT22;9882;51.166;6.992;2024-01-06T03:12:27;7.70;99.90
19483;DHT22;9882;51.166;6.992;2024-01-06T03:14:56;7.80;99.90
19483;DHT22;9882;51.166;6.992;2024-01-06T03:17:24;7.80;99.90
19483;DHT22;9882;51.166;6.992;2024-01-06T03:19:53;7.50;99.90
19483;DHT22;9882;51.166;6.992;2024-01-06T03:22:21;7.90;99.90
19483;DHT22;9882;51.166;6.992;2024-01-06T03:24:50;7.70;99.90
19483;DHT22;9882;51.166;6.992;2024-01-06T03:27:18;7.80;99.90
19483;DHT22;9882;51.166;6.992;2024-01-06T03:29:48;7.60;99.90
19483;DHT22;9882;51.166;6.992;2024-01-06T03:32:17;7.80;99.90
19483;DHT22;9882;51.166;6.992;2024-01-06T03:34:46;7.70;99.90
19483;DHT22;9882;51.166;6.992;2024-01-06T03:37:14;7.80;99.90
19483;DHT22;9882;51.166;6.992;2024-01-06T03:39:43;7.80;99.90
19483;DHT22;9882;51.166;6.992;2024-01-06T03:42:11;7.70;99.90
19483;DHT22;9882;51.166;6.992;2024-01-06T03:44:40;7.80;99.90
19483;DHT22;9882;51.166;6.992;2024-01-06T03:47:10;7.60;99.90
19483;DHT22;9882;51.166;6.992;2024-01-06T03:49:38;7.60;99.90
19483;DHT22;9882;51.166;6.992;2024-01-06T03:52:07;7.60;99.90
19483;DHT22;9882;51.166;6.992;2024-01-06T03:54:36;7.70;99.90
19483;DHT22;9882;51.166;6.992;2024-01-06T03:57:04;7.70;99.90
19483;DHT22;9882;51.166;6.992;2024-01-06T03:59:33;7.60;99.90
19483;DHT22;9882;51.166;6.992;2024-01-06T04:02:00;7.70;99.90
19483;DHT22;9882;51.166;6.992;2024-01-06T04:04:30;7.70;99.90
19483;DHT22;9882;51.166;6.992;2024-01-06T04:06:59;8.00;99.90
19483;DHT22;9882;51.166;6.992;2024-01-06T04:09:28;7.70;99.90
19483;DHT22;9882;51.166;6.992;2024-01-06T04:11:57;7.80;99.90
19483;DHT22;9882;51.166;6.992;2024-01-06T04:14:28;7.50;99.90
19483;DHT22;9882;51.166;6.992;2024-01-06T04:16:56;7.50;99.90
19483;DHT22;9882;51.166;6.992;2024-01-06T04:19:25;7.60;99.90
19483;DHT22;9882;51.166;6.992;2024-01-06T04:21:55;7.60;99.90
19483;DHT22;9882;51.166;6.992;2024-01-06T04:24:24;7.70;99.90
19483;DHT22;9882;51.166;6.992;2024-01-06T04:26:52;7.60;99.90
19483;DHT22;9882;51.166;6.992;2024-01-06T04:29:21;7.60;99.90
19483;DHT22;9882;51.166;6.992;2024-01-06T04:31:49;7.60;99.90
19483;DHT22;9882;51.166;6.992;2024-01-06T04:34:18;7.60;99.90
19483;DHT22;9882;51.166;6.992;2024-01-06T04:36:47;7.70;99.90
19483;DHT22;9882;51.166;6.992;2024-01-06T04:39:18;7.50;99.90
19483;DHT22;9882;51.166;6.992;2024-01-06T04:41:46;7.60;99.90
19483;DHT22;9882;51.166;6.992;2024-01-06T04:44:15;7.40;99.90
19483;DHT22;9882;51.166;6.992;2024-01-06T04:46:44;7.20;99.90
19483;DHT22;9882;51.166;6.992;2024-01-06T04:49:12;7.00;99.90
19483;DHT22;9882;51.166;6.992;2024-01-06T04:51:41;7.10;99.90
19483;DHT22;9882;51.166;6.992;2024-01-06T04:54:10;6.80;99.90
19483;DHT22;9882;51.166;6.992;2024-01-06T04:56:40;6.90;99.90
19483;DHT22;9882;51.166;6.992;2024-01-06T04:59:08;6.80;99.90
19483;DHT22;9882;51.166;6.992;2024-01-06T05:01:37;6.60;99.90
19483;DHT22;9882;51.166;6.992;2024-01-06T05:04:06;6.40;99.90
19483;DHT22;9882;51.166;6.992;2024-01-06T05:06:34;6.50;99.90
19483;DHT22;9882;51.166;6.992;2024-01-06T05:09:03;6.40;99.90
19483;DHT22;9882;51.166;6.992;2024-01-06T05:11:32;6.50;99.90
19483;DHT22;9882;51.166;6.992;2024-01-06T05:14:02;6.30;99.90
19483;DHT22;9882;51.166;6.992;2024-01-06T05:16:30;6.40;99.90
19483;DHT22;9882;51.166;6.992;2024-01-06T05:18:59;6.40;99.90
19483;DHT22;9882;51.166;6.992;2024-01-06T05:21:28;6.50;99.90
19483;DHT22;9882;51.166;6.992;2024-01-06T05:23:57;6.50;99.90
19483;DHT22;9882;51.166;6.992;2024-01-06T05:26:25;6.20;99.90
19483;DHT22;9882;51.166;6.992;2024-01-06T05:28:54;6.20;99.90
19483;DHT22;9882;51.166;6.992;2024-01-06T05:31:24;6.30;99.90
19483;DHT22;9882;51.166;6.992;2024-01-06T05:33:53;6.20;99.90
19483;DHT22;9882;51.166;6.992;2024-01-06T05:36:21;6.10;99.90
19483;DHT22;9882;51.166;6.992;2024-01-06T05:38:50;6.10;99.90
19483;DHT22;9882;51.166;6.992;2024-01-06T05:41:19;6.20;99.90
19483;DHT22;9882;51.166;6.992;2024-01-06T05:43:48;6.10;99.90
19483;DHT22;9882;51.166;6.992;2024-01-06T05:46:21;6.10;99.90
19483;DHT22;9882;51.166;6.992;2024-01-06T05:48:51;6.30;99.90
19483;DHT22;9882;51.166;6.992;2024-01-06T05:51:20;5.90;99.90
19483;DHT22;9882;51.166;6.992;2024-01-06T05:53:48;5.90;99.90
19483;DHT22;9882;51.166;6.992;2024-01-06T05:56:22;5.90;99.90
19483;DHT22;9882;51.166;6.992;2024-01-06T05:58:53;5.80;99.90
19483;DHT22;9882;51.166;6.992;2024-01-06T06:01:21;6.20;99.90
19483;DHT22;9882;51.166;6.992;2024-01-06T06:03:51;6.20;99.90
19483;DHT22;9882;51.166;6.992;2024-01-06T06:06:20;6.80;99.90
19483;DHT22;9882;51.166;6.992;2024-01-06T06:08:48;6.70;99.90
19483;DHT22;9882;51.166;6.992;2024-01-06T06:11:17;6.50;99.90
19483;DHT22;9882;51.166;6.992;2024-01-06T06:13:46;6.20;99.90
19483;DHT22;9882;51.166;6.992;2024-01-06T06:16:14;6.00;99.90
19483;DHT22;9882;51.166;6.992;2024-01-06T06:18:43;6.20;99.90
19483;DHT22;9882;51.166;6.992;2024-01-06T06:21:13;6.20;99.90
19483;DHT22;9882;51.166;6.992;2024-01-06T06:23:41;5.80;99.90
19483;DHT22;9882;51.166;6.992;2024-01-06T06:26:10;5.80;99.90
19483;DHT22;9882;51.166;6.992;2024-01-06T06:28:39;5.80;99.90
19483;DHT22;9882;51.166;6.992;2024-01-06T06:31:07;5.60;99.90
19483;DHT22;9882;51.166;6.992;2024-01-06T06:33:36;5.80;99.90
19483;DHT22;9882;51.166;6.992;2024-01-06T06:36:05;6.10;99.90
19483;DHT22;9882;51.166;6.992;2024-01-06T06:38:35;6.30;99.90
19483;DHT22;9882;51.166;6.992;2024-01-06T06:41:04;5.70;99.90
19483;DHT22;9882;51.166;6.992;2024-01-06T06:43:34;6.00;99.90
19483;DHT22;9882;51.166;6.992;2024-01-06T06:46:03;5.60;99.90
19483;DHT22;9882;51.166;6.992;2024-01-06T06:48:31;5.70;99.90
19483;DHT22;9882;51.166;6.992;2024-01-06T06:51:00;6.00;99.90
19483;DHT22;9882;51.166;6.992;2024-01-06T06:53:29;6.40;99.90
19483;DHT22;9882;51.166;6.992;2024-01-06T06:55:59;5.70;99.90
19483;DHT22;9882;51.166;6.992;2024-01-06T06:58:28;5.70;99.90
19483;DHT22;9882;51.166;6.992;2024-01-06T07:00:56;5.80;99.90
19483;DHT22;9882;51.166;6.992;2024-01-06T07:03:25;5.80;99.90
19483;DHT22;9882;51.166;6.992;2024-01-06T07:05:54;5.50;99.90
19483;DHT22;9882;51.166;6.992;2024-01-06T07:08:22;5.80;99.90
19483;DHT22;9882;51.166;6.992;2024-01-06T07:10:51;5.80;99.90
19483;DHT22;9882;51.166;6.992;2024-01-06T07:13:21;5.90;99.90
19483;DHT22;9882;51.166;6.992;2024-01-06T07:15:49;5.90;99.90
19483;DHT22;9882;51.166;6.992;2024-01-06T07:18:18;6.00;99.90
19483;DHT22;9882;51.166;6.992;2024-01-06T07:20:50;6.40;99.90
19483;DHT22;9882;51.166;6.992;2024-01-06T07:23:19;6.00;99.90
19483;DHT22;9882;51.166;6.992;2024-01-06T07:25:47;5.90;99.90
19483;DHT22;9882;51.166;6.992;2024-01-06T07:28:16;5.70;99.90
19483;DHT22;9882;51.166;6.992;2024-01-06T07:30:46;5.40;99.90
19483;DHT22;9882;51.166;6.992;2024-01-06T07:33:15;5.50;99.90
19483;DHT22;9882;51.166;6.992;2024-01-06T07:35:44;5.50;99.90
19483;DHT22;9882;51.166;6.992;2024-01-06T07:38:13;5.40;99.90
19483;DHT22;9882;51.166;6.992;2024-01-06T07:40:41;5.30;99.90
19483;DHT22;9882;51.166;6.992;2024-01-06T07:43:11;5.60;99.90
19483;DHT22;9882;51.166;6.992;2024-01-06T07:45:42;5.50;99.90
19483;DHT22;9882;51.166;6.992;2024-01-06T07:48:12;5.60;99.90
19483;DHT22;9882;51.166;6.992;2024-01-06T07:50:41;5.40;99.90
19483;DHT22;9882;51.166;6.992;2024-01-06T07:53:10;5.40;99.90
19483;DHT22;9882;51.166;6.992;2024-01-06T07:55:39;5.50;99.90
19483;DHT22;9882;51.166;6.992;2024-01-06T07:58:08;5.30;99.90
19483;DHT22;9882;51.166;6.992;2024-01-06T08:00:36;5.80;99.90
19483;DHT22;9882;51.166;6.992;2024-01-06T08:03:05;5.60;99.90
19483;DHT22;9882;51.166;6.992;2024-01-06T08:05:35;5.70;99.90
19483;DHT22;9882;51.166;6.992;2024-01-06T08:08:05;5.60;99.90
19483;DHT22;9882;51.166;6.992;2024-01-06T08:10:33;5.40;99.90
19483;DHT22;9882;51.166;6.992;2024-01-06T08:13:02;5.60;99.90
19483;DHT22;9882;51.166;6.992;2024-01-06T08:15:31;5.70;99.90
19483;DHT22;9882;51.166;6.992;2024-01-06T08:18:00;6.10;99.90
19483;DHT22;9882;51.166;6.992;2024-01-06T08:20:29;6.00;99.90
19483;DHT22;9882;51.166;6.992;2024-01-06T08:22:59;5.80;99.90
19483;DHT22;9882;51.166;6.992;2024-01-06T08:25:27;5.90;99.90
19483;DHT22;9882;51.166;6.992;2024-01-06T08:27:56;6.10;99.90
19483;DHT22;9882;51.166;6.992;2024-01-06T08:30:25;6.10;99.90
19483;DHT22;9882;51.166;6.992;2024-01-06T08:32:53;5.70;99.90
19483;DHT22;9882;51.166;6.992;2024-01-06T08:35:22;5.50;99.90
19483;DHT22;9882;51.166;6.992;2024-01-06T08:37:51;5.40;99.90
19483;DHT22;9882;51.166;6.992;2024-01-06T08:40:20;5.50;99.90
19483;DHT22;9882;51.166;6.992;2024-01-06T08:42:49;5.40;99.90
19483;DHT22;9882;51.166;6.992;2024-01-06T08:45:18;5.60;99.90
19483;DHT22;9882;51.166;6.992;2024-01-06T08:47:46;5.40;99.90
19483;DHT22;9882;51.166;6.992;2024-01-06T08:50:15;5.40;99.90
19483;DHT22;9882;51.166;6.992;2024-01-06T08:52:43;5.60;99.90
19483;DHT22;9882;51.166;6.992;2024-01-06T08:55:12;5.50;99.90
19483;DHT22;9882;51.166;6.992;2024-01-06T08:57:43;5.50;99.90
19483;DHT22;9882;51.166;6.992;2024-01-06T09:00:12;5.60;99.90
19483;DHT22;9882;51.166;6.992;2024-01-06T09:02:41;5.70;99.90
19483;DHT22;9882;51.166;6.992;2024-01-06T09:05:10;5.60;99.90
19483;DHT22;9882;51.166;6.992;2024-01-06T09:07:39;5.50;99.90
19483;DHT22;9882;51.166;6.992;2024-01-06T09:10:08;5.70;99.90
19483;DHT22;9882;51.166;6.992;2024-01-06T09:12:37;5.40;99.90
19483;DHT22;9882;51.166;6.992;2024-01-06T09:15:08;5.80;99.90
19483;DHT22;9882;51.166;6.992;2024-01-06T09:17:37;5.80;99.90
19483;DHT22;9882;51.166;6.992;2024-01-06T09:20:06;6.00;99.90
19483;DHT22;9882;51.166;6.992;2024-01-06T09:22:35;6.10;99.90
19483;DHT22;9882;51.166;6.992;2024-01-06T09:25:04;5.90;99.90
19483;DHT22;9882;51.166;6.992;2024-01-06T09:27:33;6.00;99.90
19483;DHT22;9882;51.166;6.992;2024-01-06T09:30:02;5.80;99.90
19483;DHT22;9882;51.166;6.992;2024-01-06T09:32:32;5.60;99.90
19483;DHT22;9882;51.166;6.992;2024-01-06T09:35:00;5.50;99.90
19483;DHT22;9882;51.166;6.992;2024-01-06T09:37:29;5.50;99.90
19483;DHT22;9882;51.166;6.992;2024-01-06T09:39:58;5.30;99.90
19483;DHT22;9882;51.166;6.992;2024-01-06T09:42:27;5.30;99.90
19483;DHT22;9882;51.166;6.992;2024-01-06T09:44:55;5.70;99.90
19483;DHT22;9882;51.166;6.992;2024-01-06T09:47:26;5.70;99.90
19483;DHT22;9882;51.166;6.992;2024-01-06T09:50:01;5.40;99.90
19483;DHT22;9882;51.166;6.992;2024-01-06T09:52:32;5.50;99.90
19483;DHT22;9882;51.166;6.992;2024-01-06T09:55:02;5.50;99.90
19483;DHT22;9882;51.166;6.992;2024-01-06T09:57:37;5.40;99.90
19483;DHT22;9882;51.166;6.992;2024-01-06T10:00:07;5.30;99.90
19483;DHT22;9882;51.166;6.992;2024-01-06T10:02:39;5.20;99.90
19483;DHT22;9882;51.166;6.992;2024-01-06T10:05:12;5.30;99.90
19483;DHT22;9882;51.166;6.992;2024-01-06T10:07:41;5.60;99.90
19483;DHT22;9882;51.166;6.992;2024-01-06T10:10:10;5.70;99.90
19483;DHT22;9882;51.166;6.992;2024-01-06T10:12:40;5.50;99.90
19483;DHT22;9882;51.166;6.992;2024-01-06T10:15:10;5.20;99.90
19483;DHT22;9882;51.166;6.992;2024-01-06T10:17:40;5.30;99.90
19483;DHT22;9882;51.166;6.992;2024-01-06T10:20:10;5.20;99.90
19483;DHT22;9882;51.166;6.992;2024-01-06T10:22:42;5.00;99.90
19483;DHT22;9882;51.166;6.992;2024-01-06T10:25:12;5.00;99.90
19483;DHT22;9882;51.166;6.992;2024-01-06T10:27:42;5.00;99.90
19483;DHT22;9882;51.166;6.992;2024-01-06T10:30:11;4.90;99.90
19483;DHT22;9882;51.166;6.992;2024-01-06T10:32:45;5.20;99.90
19483;DHT22;9882;51.166;6.992;2024-01-06T10:35:14;5.30;99.90
19483;DHT22;9882;51.166;6.992;2024-01-06T10:37:44;5.40;99.90
19483;DHT22;9882;51.166;6.992;2024-01-06T10:40:15;5.10;99.90
19483;DHT22;9882;51.166;6.992;2024-01-06T10:42:45;5.00;99.90
19483;DHT22;9882;51.166;6.992;2024-01-06T10:45:14;5.50;99.90
19483;DHT22;9882;51.166;6.992;2024-01-06T10:47:43;5.60;99.90
19483;DHT22;9882;51.166;6.992;2024-01-06T10:50:14;5.50;99.90
19483;DHT22;9882;51.166;6.992;2024-01-06T10:52:47;5.50;99.90
19483;DHT22;9882;51.166;6.992;2024-01-06T10:55:16;5.10;99.90
19483;DHT22;9882;51.166;6.992;2024-01-06T10:57:47;5.10;99.90
19483;DHT22;9882;51.166;6.992;2024-01-06T11:00:18;5.40;99.90
19483;DHT22;9882;51.166;6.992;2024-01-06T11:02:47;5.30;99.90
19483;DHT22;9882;51.166;6.992;2024-01-06T11:05:20;5.10;99.90
19483;DHT22;9882;51.166;6.992;2024-01-06T11:07:50;4.90;99.90
19483;DHT22;9882;51.166;6.992;2024-01-06T11:10:23;5.00;99.90
19483;DHT22;9882;51.166;6.992;2024-01-06T11:13:08;5.10;99.90
19483;DHT22;9882;51.166;6.992;2024-01-06T11:15:42;5.20;99.90
19483;DHT22;9882;51.166;6.992;2024-01-06T11:18:32;5.10;99.90
19483;DHT22;9882;51.166;6.992;2024-01-06T11:21:18;5.00;99.90
19483;DHT22;9882;51.166;6.992;2024-01-06T11:24:17;5.20;99.90
19483;DHT22;9882;51.166;6.992;2024-01-06T11:26:50;5.10;99.90
19483;DHT22;9882;51.166;6.992;2024-01-06T11:29:20;5.30;99.90
19483;DHT22;9882;51.166;6.992;2024-01-06T11:32:16;5.10;99.90
19483;DHT22;9882;51.166;6.992;2024-01-06T11:34:48;5.20;99.90
19483;DHT22;9882;51.166;6.992;2024-01-06T11:37:23;5.20;99.90
19483;DHT22;9882;51.166;6.992;2024-01-06T11:39:53;5.00;99.90
19483;DHT22;9882;51.166;6.992;2024-01-06T11:42:32;5.20;99.90
19483;DHT22;9882;51.166;6.992;2024-01-06T11:45:05;5.30;99.90
19483;DHT22;9882;51.166;6.992;2024-01-06T11:47:37;5.10;99.90
19483;DHT22;9882;51.166;6.992;2024-01-06T11:50:06;5.00;99.90
19483;DHT22;9882;51.166;6.992;2024-01-06T11:52:35;4.70;99.90
19483;DHT22;9882;51.166;6.992;2024-01-06T11:55:05;4.70;99.90
19483;DHT22;9882;51.166;6.992;2024-01-06T11:57:35;4.90;99.90
19483;DHT22;9882;51.166;6.992;2024-01-06T12:00:06;5.00;99.90
19483;DHT22;9882;51.166;6.992;2024-01-06T12:02:35;5.20;99.90
19483;DHT22;9882;51.166;6.992;2024-01-06T12:05:04;5.50;99.90
19483;DHT22;9882;51.166;6.992;2024-01-06T12:07:32;5.10;99.90
19483;DHT22;9882;51.166;6.992;2024-01-06T12:10:02;5.30;99.90
19483;DHT22;9882;51.166;6.992;2024-01-06T12:12:33;5.20;99.90
19483;DHT22;9882;51.166;6.992;2024-01-06T12:15:02;5.40;99.90
19483;DHT22;9882;51.166;6.992;2024-01-06T12:17:31;5.40;99.90
19483;DHT22;9882;51.166;6.992;2024-01-06T12:20:00;5.10;99.90
19483;DHT22;9882;51.166;6.992;2024-01-06T12:22:29;5.10;99.90
19483;DHT22;9882;51.166;6.992;2024-01-06T12:24:59;4.90;99.90
19483;DHT22;9882;51.166;6.992;2024-01-06T12:27:28;5.30;99.90
19483;DHT22;9882;51.166;6.992;2024-01-06T12:29:58;5.10;99.90
19483;DHT22;9882;51.166;6.992;2024-01-06T12:32:28;5.10;99.90
19483;DHT22;9882;51.166;6.992;2024-01-06T12:34:57;5.40;99.90
19483;DHT22;9882;51.166;6.992;2024-01-06T12:37:27;4.80;99.90
19483;DHT22;9882;51.166;6.992;2024-01-06T12:39:57;4.90;99.90
19483;DHT22;9882;51.166;6.992;2024-01-06T12:42:26;4.70;99.90
19483;DHT22;9882;51.166;6.992;2024-01-06T12:44:55;5.40;99.90
19483;DHT22;9882;51.166;6.992;2024-01-06T12:47:30;5.40;99.90
19483;DHT22;9882;51.166;6.992;2024-01-06T12:49:58;4.50;99.90
19483;DHT22;9882;51.166;6.992;2024-01-06T12:52:27;4.50;99.90
19483;DHT22;9882;51.166;6.992;2024-01-06T12:54:56;4.60;99.90
19483;DHT22;9882;51.166;6.992;2024-01-06T12:57:24;5.00;99.90
19483;DHT22;9882;51.166;6.992;2024-01-06T12:59:53;5.50;99.90
19483;DHT22;9882;51.166;6.992;2024-01-06T13:02:22;5.30;99.90
19483;DHT22;9882;51.166;6.992;2024-01-06T13:04:52;5.40;99.90
19483;DHT22;9882;51.166;6.992;2024-01-06T13:07:22;4.80;99.90
19483;DHT22;9882;51.166;6.992;2024-01-06T13:09:51;5.30;99.90
19483;DHT22;9882;51.166;6.992;2024-01-06T13:12:20;5.50;99.90
19483;DHT22;9882;51.166;6.992;2024-01-06T13:14:51;5.20;99.90
19483;DHT22;9882;51.166;6.992;2024-01-06T13:17:19;5.40;99.90
19483;DHT22;9882;51.166;6.992;2024-01-06T13:19:48;4.80;99.90
19483;DHT22;9882;51.166;6.992;2024-01-06T13:22:18;4.80;99.90
19483;DHT22;9882;51.166;6.992;2024-01-06T13:24:49;5.20;99.90
19483;DHT22;9882;51.166;6.992;2024-01-06T13:27:19;5.00;99.90
19483;DHT22;9882;51.166;6.992;2024-01-06T13:29:48;5.20;99.90
19483;DHT22;9882;51.166;6.992;2024-01-06T13:32:17;5.00;99.90
19483;DHT22;9882;51.166;6.992;2024-01-06T13:34:46;4.90;99.90
19483;DHT22;9882;51.166;6.992;2024-01-06T13:37:15;4.70;99.90
19483;DHT22;9882;51.166;6.992;2024-01-06T13:39:45;5.10;99.90
19483;DHT22;9882;51.166;6.992;2024-01-06T13:42:14;5.30;99.90
19483;DHT22;9882;51.166;6.992;2024-01-06T13:44:44;5.30;99.90
19483;DHT22;9882;51.166;6.992;2024-01-06T13:47:13;5.40;99.90
19483;DHT22;9882;51.166;6.992;2024-01-06T13:49:41;5.40;99.90
19483;DHT22;9882;51.166;6.992;2024-01-06T13:52:10;5.40;99.90
19483;DHT22;9882;51.166;6.992;2024-01-06T13:54:38;4.90;99.90
19483;DHT22;9882;51.166;6.992;2024-01-06T13:57:09;5.20;99.90
19483;DHT22;9882;51.166;6.992;2024-01-06T13:59:37;5.20;99.90
19483;DHT22;9882;51.166;6.992;2024-01-06T14:02:12;5.10;99.90
19483;DHT22;9882;51.166;6.992;2024-01-06T14:04:41;4.80;99.90
19483;DHT22;9882;51.166;6.992;2024-01-06T14:07:10;4.90;99.90
19483;DHT22;9882;51.166;6.992;2024-01-06T14:09:39;4.40;99.90
19483;DHT22;9882;51.166;6.992;2024-01-06T14:12:09;4.60;99.90
19483;DHT22;9882;51.166;6.992;2024-01-06T14:14:37;4.80;99.90
19483;DHT22;9882;51.166;6.992;2024-01-06T14:17:06;4.20;99.90
19483;DHT22;9882;51.166;6.992;2024-01-06T14:19:35;4.00;99.90
19483;DHT22;9882;51.166;6.992;2024-01-06T14:22:04;4.50;99.90
19483;DHT22;9882;51.166;6.992;2024-01-06T14:24:33;4.70;99.90
19483;DHT22;9882;51.166;6.992;2024-01-06T14:27:04;4.40;99.90
19483;DHT22;9882;51.166;6.992;2024-01-06T14:29:34;4.20;99.90
19483;DHT22;9882;51.166;6.992;2024-01-06T14:32:03;5.10;99.90
19483;DHT22;9882;51.166;6.992;2024-01-06T14:34:32;5.20;99.90
19483;DHT22;9882;51.166;6.992;2024-01-06T14:37:01;5.10;99.90
19483;DHT22;9882;51.166;6.992;2024-01-06T14:39:30;5.40;99.90
19483;DHT22;9882;51.166;6.992;2024-01-06T14:41:59;5.50;99.90
19483;DHT22;9882;51.166;6.992;2024-01-06T14:44:28;5.30;99.90
19483;DHT22;9882;51.166;6.992;2024-01-06T14:46:58;5.40;99.90
19483;DHT22;9882;51.166;6.992;2024-01-06T14:49:27;5.70;99.90
19483;DHT22;9882;51.166;6.992;2024-01-06T14:51:56;5.50;99.90
19483;DHT22;9882;51.166;6.992;2024-01-06T14:54:24;5.40;99.90
19483;DHT22;9882;51.166;6.992;2024-01-06T14:56:53;5.40;99.90
19483;DHT22;9882;51.166;6.992;2024-01-06T14:59:21;5.60;99.90
19483;DHT22;9882;51.166;6.992;2024-01-06T15:01:50;5.70;99.90
19483;DHT22;9882;51.166;6.992;2024-01-06T15:04:20;5.20;99.90
19483;DHT22;9882;51.166;6.992;2024-01-06T15:06:49;4.70;99.90
19483;DHT22;9882;51.166;6.992;2024-01-06T15:09:18;4.90;99.90
19483;DHT22;9882;51.166;6.992;2024-01-06T15:11:47;5.30;99.90
19483;DHT22;9882;51.166;6.992;2024-01-06T15:14:16;5.30;99.90
19483;DHT22;9882;51.166;6.992;2024-01-06T15:16:44;5.40;99.90
19483;DHT22;9882;51.166;6.992;2024-01-06T15:19:13;5.50;99.90
19483;DHT22;9882;51.166;6.992;2024-01-06T15:21:43;5.30;99.90
19483;DHT22;9882;51.166;6.992;2024-01-06T15:24:15;5.60;99.90
19483;DHT22;9882;51.166;6.992;2024-01-06T15:26:45;5.20;99.90
19483;DHT22;9882;51.166;6.992;2024-01-06T15:29:13;5.20;99.90
19483;DHT22;9882;51.166;6.992;2024-01-06T15:31:42;5.30;99.90
19483;DHT22;9882;51.166;6.992;2024-01-06T15:34:11;4.20;99.90
19483;DHT22;9882;51.166;6.992;2024-01-06T15:36:40;3.50;99.90
19483;DHT22;9882;51.166;6.992;2024-01-06T15:39:10;3.40;99.90
19483;DHT22;9882;51.166;6.992;2024-01-06T15:41:38;3.70;99.90
19483;DHT22;9882;51.166;6.992;2024-01-06T15:44:07;3.50;99.90
19483;DHT22;9882;51.166;6.992;2024-01-06T15:46:36;3.70;99.90
19483;DHT22;9882;51.166;6.992;2024-01-06T15:49:04;3.60;99.90
19483;DHT22;9882;51.166;6.992;2024-01-06T15:51:33;4.20;99.90
19483;DHT22;9882;51.166;6.992;2024-01-06T15:54:02;4.70;99.90
19483;DHT22;9882;51.166;6.992;2024-01-06T15:56:32;4.50;99.90
19483;DHT22;9882;51.166;6.992;2024-01-06T15:59:00;4.70;99.90
19483;DHT22;9882;51.166;6.992;2024-01-06T16:01:29;5.00;99.90
19483;DHT22;9882;51.166;6.992;2024-01-06T16:03:58;4.30;99.90
19483;DHT22;9882;51.166;6.992;2024-01-06T16:06:26;4.70;99.90
19483;DHT22;9882;51.166;6.992;2024-01-06T16:08:55;4.10;99.90
19483;DHT22;9882;51.166;6.992;2024-01-06T16:11:24;3.90;99.90
19483;DHT22;9882;51.166;6.992;2024-01-06T16:13:54;4.10;99.90
19483;DHT22;9882;51.166;6.992;2024-01-06T16:16:23;4.10;99.90